PST,Max TemperatureF,Mean TemperatureF,Min TemperatureF,Max Dew PointF,MeanDew PointF,Min DewpointF,Max Humidity, Mean Humidity, Min Humidity, Max Sea Level PressureIn, Mean Sea Level PressureIn, Min Sea Level PressureIn, Max VisibilityMiles, Mean VisibilityMiles, Min VisibilityMiles, Max Wind SpeedMPH, Mean Wind SpeedMPH, Max Gust SpeedMPH,PrecipitationIn, CloudCover, Events, WindDirDegrees
2013-1-1,54,43,32,39,35,31,100,75,50,30.26,30.21,30.15,10,10,8,16,4,22,0.00,3,,66
2013-1-2,60,44,28,37,32,27,100,68,36,30.25,30.19,30.13,10,9,6,18,3,21,0.00,0,,73
2013-1-3,60,44,27,37,31,25,92,64,36,30.27,30.21,30.16,10,9,5,13,2,26,0.00,0,,85
2013-1-4,61,45,28,39,32,26,100,69,38,30.31,30.24,30.18,10,9,4,8,2,22,0.00,0,,150
2013-1-5,58,43,28,46,40,27,93,75,57,30.32,30.19,30.13,10,9,4,16,3,,0.16,4,Rain,192
2013-1-6,50,45,39,45,42,39,100,89,77,30.16,30.11,30.09,10,10,2,15,8,18,0.25,6,Rain,316
2013-1-7,56,44,32,43,37,32,100,80,59,30.27,30.19,30.13,10,6,0,12,4,16,0.00,2,Fog,83
2013-1-8,60,47,34,46,39,34,93,73,53,30.22,30.17,30.13,10,9,4,15,5,25,0.00,0,,85
2013-1-9,59,47,35,48,42,34,100,79,57,30.16,30.06,30.00,10,9,5,22,5,28,0.02,3,Rain,251
2013-1-10,51,42,33,39,34,30,96,73,50,30.18,30.09,30.04,10,10,10,24,8,29,T,1,,322
2013-1-11,51,39,27,37,30,24,100,70,39,30.25,30.17,30.12,10,10,10,16,4,,T,4,Rain,309
2013-1-12,50,39,28,36,29,21,100,66,32,30.25,30.18,30.13,10,9,1,10,2,,0.00,2,,38
2013-1-13,49,37,24,28,25,20,92,63,34,30.26,30.18,30.12,10,10,10,8,2,10,0.00,0,,62
2013-1-14,49,36,23,25,22,20,88,61,34,30.40,30.33,30.22,10,10,10,15,5,17,0.00,0,,90
2013-1-15,55,40,25,29,25,21,92,61,29,30.50,30.43,30.38,10,10,10,10,2,13,0.00,0,,101
2013-1-16,62,44,25,35,29,23,92,63,34,30.44,30.34,30.25,10,9,6,16,1,29,0.00,0,,105
2013-1-17,69,48,27,35,29,24,92,60,27,30.27,30.20,30.12,10,9,4,10,2,15,0.00,0,,131
2013-1-18,72,50,27,34,29,23,92,54,16,30.25,30.17,30.10,10,9,6,14,3,16,0.00,0,,103
2013-1-19,72,50,27,37,30,21,92,54,15,30.27,30.19,30.12,10,9,5,15,3,18,0.00,0,,88
2013-1-20,70,48,26,36,31,24,100,59,18,30.25,30.19,30.09,10,7,2,13,4,,0.00,0,,94
2013-1-21,70,49,27,39,33,25,92,61,30,30.20,30.14,30.07,10,8,5,15,2,20,0.00,0,,81
2013-1-22,68,48,28,40,33,26,92,61,30,30.15,30.09,30.03,10,8,4,7,2,9,0.00,0,,128
2013-1-23,60,51,41,45,38,34,86,63,40,30.08,30.05,30.00,10,10,10,15,2,17,0.01,4,Rain,202
2013-1-24,57,52,47,54,50,45,100,93,86,30.18,30.11,30.04,10,7,2,8,2,17,0.24,8,Rain,328
2013-1-25,65,59,52,55,52,51,100,82,63,30.17,30.11,30.03,10,5,0,16,5,21,0.01,6,Fog-Rain,65
2013-1-26,64,56,47,54,49,37,100,83,65,30.04,29.99,29.94,10,6,2,20,6,24,T,6,,319
2013-1-27,57,46,35,39,36,33,100,72,43,30.14,30.09,30.03,10,10,10,23,9,29,0.00,2,,325
2013-1-28,56,43,30,38,36,30,100,74,47,30.27,30.20,30.14,10,10,10,16,6,59,0.00,1,,324
2013-1-29,57,46,35,40,36,33,100,76,51,30.32,30.28,30.23,10,8,1,10,4,12,0.00,4,,75
2013-1-30,66,49,32,42,37,30,100,69,37,30.37,30.29,30.24,10,10,8,9,2,23,0.00,0,,63
2013-1-31,72,52,32,43,37,31,96,67,37,30.29,30.23,30.15,10,8,2,12,2,15,0.00,0,,113